Time;durP1;ratioP1;P1;durP2;ratioP2;P2;SDS_P1;SDS_P2;PMS_P1;PMS_P2;Temp;Humidity;BMP_temperature;BMP_pressure;BME280_temperature;BME280_humidity;BME280_pressure;Samples;Min_cycle;Max_cycle;Signal;HPM_P1;HPM_P2
2021/09/24 00:02:23;;;;;;;33.92;5.65;;;;;;;;;;5054360;28;20025;-84
2021/09/24 00:04:48;;;;;;;37.65;6.10;;;;;;;;;;5036819;28;20059;-84
2021/09/24 00:07:14;;;;;;;43.17;6.47;;;;;;;;;;5055295;28;20149;-84
2021/09/24 00:09:39;;;;;;;37.30;6.38;;;;;;;;;;5037168;28;20032;-84
2021/09/24 00:12:05;;;;;;;36.17;7.22;;;;;;;;;;5037636;28;20016;-85
2021/09/24 00:14:30;;;;;;;30.15;6.10;;;;;;;;;;5057737;28;20104;-85
2021/09/24 00:16:55;;;;;;;34.45;6.85;;;;;;;;;;5038977;28;20044;-84
2021/09/24 00:19:21;;;;;;;26.98;4.70;;;;;;;;;;5035724;28;20412;-84
2021/09/24 00:21:46;;;;;;;32.60;5.43;;;;;;;;;;5036999;28;20024;-84
2021/09/24 00:24:11;;;;;;;39.13;6.03;;;;;;;;;;5054559;28;20623;-84
2021/09/24 00:26:37;;;;;;;32.50;5.55;;;;;;;;;;5037201;28;20025;-85
2021/09/24 00:29:03;;;;;;;36.45;5.72;;;;;;;;;;5037872;28;20029;-84
2021/09/24 00:31:28;;;;;;;25.20;4.82;;;;;;;;;;5036633;28;20020;-85
2021/09/24 00:33:53;;;;;;;31.25;6.10;;;;;;;;;;5057638;28;20444;-84
2021/09/24 00:36:19;;;;;;;34.53;6.28;;;;;;;;;;5035021;28;20021;-84
2021/09/24 00:38:44;;;;;;;30.58;5.80;;;;;;;;;;5053845;28;20029;-84
2021/09/24 00:41:10;;;;;;;24.05;4.32;;;;;;;;;;5036124;28;20523;-84
2021/09/24 00:43:35;;;;;;;24.02;4.28;;;;;;;;;;5036648;28;20405;-84
2021/09/24 00:46:01;;;;;;;33.28;6.22;;;;;;;;;;5055312;28;20032;-84
2021/09/24 00:48:27;;;;;;;26.65;5.47;;;;;;;;;;5037533;28;20044;-84
2021/09/24 00:50:52;;;;;;;28.88;6.15;;;;;;;;;;5039199;28;20025;-84
2021/09/24 00:53:17;;;;;;;22.25;4.15;;;;;;;;;;5060414;28;20029;-84
2021/09/24 00:55:43;;;;;;;29.13;5.03;;;;;;;;;;5053683;28;20048;-85
2021/09/24 00:58:08;;;;;;;25.83;5.22;;;;;;;;;;5036075;28;20397;-84
2021/09/24 01:00:33;;;;;;;33.88;4.70;;;;;;;;;;5037364;28;20024;-84
2021/09/24 01:02:59;;;;;;;26.55;4.97;;;;;;;;;;5036746;28;20037;-84
2021/09/24 01:05:24;;;;;;;32.22;6.32;;;;;;;;;;5037510;28;20025;-84
2021/09/24 01:07:50;;;;;;;30.63;5.45;;;;;;;;;;5038167;28;20031;-84
2021/09/24 01:10:16;;;;;;;36.03;6.72;;;;;;;;;;5059855;28;20092;-84
2021/09/24 01:12:42;;;;;;;28.58;6.03;;;;;;;;;;5053539;28;20045;-84
2021/09/24 01:15:08;;;;;;;26.27;4.63;;;;;;;;;;5053895;28;20057;-84
2021/09/24 01:17:34;;;;;;;29.92;4.55;;;;;;;;;;5037165;28;20033;-84
2021/09/24 01:19:59;;;;;;;43.90;5.53;;;;;;;;;;5037419;28;20039;-84
2021/09/24 01:22:25;;;;;;;31.30;5.53;;;;;;;;;;5036686;28;20025;-84
2021/09/24 01:24:50;;;;;;;25.23;4.60;;;;;;;;;;5036615;28;20072;-84
2021/09/24 01:27:15;;;;;;;27.88;5.55;;;;;;;;;;5058486;28;20052;-84
2021/09/24 01:29:41;;;;;;;32.83;5.55;;;;;;;;;;5052654;28;20024;-84
2021/09/24 01:32:06;;;;;;;23.33;5.38;;;;;;;;;;5034573;28;20420;-84
2021/09/24 01:34:32;;;;;;;29.48;4.75;;;;;;;;;;5035102;28;20036;-84
2021/09/24 01:36:57;;;;;;;33.17;5.53;;;;;;;;;;5035646;28;20141;-84
2021/09/24 01:39:22;;;;;;;34.17;5.60;;;;;;;;;;5036489;28;20028;-84
2021/09/24 01:41:48;;;;;;;31.52;5.82;;;;;;;;;;5053709;28;20369;-84
2021/09/24 01:44:14;;;;;;;27.55;5.30;;;;;;;;;;5038153;28;20116;-84
2021/09/24 01:46:42;;;;;;;25.02;5.47;;;;;;;;;;5051899;28;20441;-83
2021/09/24 01:49:08;;;;;;;23.52;5.40;;;;;;;;;;5034251;28;20079;-84
2021/09/24 01:51:34;;;;;;;29.52;4.97;;;;;;;;;;5034685;28;20025;-85
2021/09/24 01:54:00;;;;;;;27.73;4.13;;;;;;;;;;5053072;28;20070;-84
2021/09/24 01:56:25;;;;;;;32.45;5.45;;;;;;;;;;5036407;28;20825;-84
2021/09/24 01:58:51;;;;;;;23.58;4.13;;;;;;;;;;5036806;28;20024;-85
2021/09/24 02:01:16;;;;;;;36.72;5.40;;;;;;;;;;5036731;28;20024;-84
2021/09/24 02:03:42;;;;;;;29.45;5.15;;;;;;;;;;5059297;28;20025;-84
2021/09/24 02:06:07;;;;;;;29.52;5.10;;;;;;;;;;5037167;28;20020;-84
2021/09/24 02:08:32;;;;;;;35.25;5.22;;;;;;;;;;5054751;28;20037;-85
2021/09/24 02:10:57;;;;;;;22.50;4.40;;;;;;;;;;5053768;28;20025;-84
2021/09/24 02:13:23;;;;;;;22.23;4.93;;;;;;;;;;5035086;28;20254;-85
2021/09/24 02:15:48;;;;;;;32.47;5.78;;;;;;;;;;5035956;28;20259;-85
2021/09/24 02:18:13;;;;;;;27.15;4.93;;;;;;;;;;5034896;28;20055;-84
2021/09/24 02:20:38;;;;;;;25.50;4.88;;;;;;;;;;5034891;28;20024;-85
2021/09/24 02:23:04;;;;;;;28.48;5.75;;;;;;;;;;5053285;28;20049;-84
2021/09/24 02:25:29;;;;;;;32.30;5.45;;;;;;;;;;5053495;28;20021;-85
2021/09/24 02:27:54;;;;;;;20.90;4.50;;;;;;;;;;5035821;28;20039;-85
2021/09/24 02:30:19;;;;;;;24.77;4.73;;;;;;;;;;5037506;28;20071;-84
2021/09/24 02:32:45;;;;;;;26.67;4.57;;;;;;;;;;5035160;28;20785;-84
2021/09/24 02:35:10;;;;;;;27.65;5.47;;;;;;;;;;5053116;28;20029;-84
2021/09/24 02:37:36;;;;;;;32.50;5.82;;;;;;;;;;5052851;28;20047;-84
2021/09/24 02:40:01;;;;;;;34.90;5.53;;;;;;;;;;5035083;28;20025;-84
2021/09/24 02:42:26;;;;;;;29.90;5.40;;;;;;;;;;5038452;28;20095;-84
2021/09/24 02:44:52;;;;;;;25.80;4.60;;;;;;;;;;5051913;28;20048;-85
2021/09/24 02:47:17;;;;;;;26.98;5.05;;;;;;;;;;5035066;28;20542;-85
2021/09/24 02:49:44;;;;;;;30.77;5.75;;;;;;;;;;5036471;28;20202;-85
2021/09/24 02:52:10;;;;;;;28.40;4.85;;;;;;;;;;5035706;28;20025;-84
2021/09/24 02:54:35;;;;;;;28.55;5.18;;;;;;;;;;5053761;28;20463;-85
2021/09/24 02:57:00;;;;;;;26.00;5.33;;;;;;;;;;5034654;28;20056;-83
2021/09/24 02:59:25;;;;;;;31.70;4.78;;;;;;;;;;5056192;28;20313;-84
2021/09/24 03:01:54;;;;;;;32.90;5.70;;;;;;;;;;5050946;28;20025;-84
2021/09/24 03:04:19;;;;;;;28.25;4.10;;;;;;;;;;5034134;28;20263;-84
2021/09/24 03:06:44;;;;;;;28.75;5.43;;;;;;;;;;5034010;28;20084;-85
2021/09/24 03:09:09;;;;;;;26.47;4.60;;;;;;;;;;5034353;28;20095;-84
2021/09/24 03:11:35;;;;;;;21.90;5.28;;;;;;;;;;5034048;28;20255;-84
2021/09/24 03:14:00;;;;;;;22.98;4.55;;;;;;;;;;5034501;28;20453;-84
2021/09/24 03:16:25;;;;;;;24.33;5.13;;;;;;;;;;5052202;28;20035;-85
2021/09/24 03:18:51;;;;;;;31.13;5.05;;;;;;;;;;5036112;28;20053;-84
2021/09/24 03:21:16;;;;;;;30.13;4.95;;;;;;;;;;5032877;28;20025;-84
2021/09/24 03:23:42;;;;;;;34.45;5.90;;;;;;;;;;5053082;28;20099;-84
2021/09/24 03:26:07;;;;;;;34.10;5.78;;;;;;;;;;5034100;28;20033;-84
2021/09/24 03:28:32;;;;;;;32.95;5.55;;;;;;;;;;5034282;28;20167;-84
2021/09/24 03:30:57;;;;;;;31.13;5.00;;;;;;;;;;5034768;28;20029;-84
2021/09/24 03:33:23;;;;;;;30.40;4.68;;;;;;;;;;5054267;28;20715;-84
2021/09/24 03:35:48;;;;;;;29.25;4.85;;;;;;;;;;5050929;28;20048;-84
2021/09/24 03:38:14;;;;;;;20.65;4.60;;;;;;;;;;5033322;28;20047;-85
2021/09/24 03:40:40;;;;;;;37.70;6.40;;;;;;;;;;5034353;28;20622;-84
2021/09/24 03:43:05;;;;;;;32.75;7.18;;;;;;;;;;5051875;28;20049;-83
2021/09/24 03:45:30;;;;;;;29.27;5.53;;;;;;;;;;5053324;28;20028;-84
2021/09/24 03:47:55;;;;;;;26.95;5.38;;;;;;;;;;5052508;28;20031;-84
2021/09/24 03:50:21;;;;;;;32.40;5.05;;;;;;;;;;5052129;28;20092;-85
2021/09/24 03:52:46;;;;;;;36.25;5.47;;;;;;;;;;5053640;28;20059;-84
2021/09/24 03:55:11;;;;;;;37.22;5.97;;;;;;;;;;5051349;28;20021;-84
2021/09/24 03:57:37;;;;;;;28.33;5.03;;;;;;;;;;5053685;28;20107;-84
2021/09/24 04:00:03;;;;;;;27.50;4.93;;;;;;;;;;5055691;28;20071;-84
2021/09/24 04:02:28;;;;;;;24.85;6.00;;;;;;;;;;5037718;28;20270;-84
2021/09/24 04:04:53;;;;;;;31.63;5.63;;;;;;;;;;5056090;28;20020;-85
2021/09/24 04:07:19;;;;;;;28.58;4.80;;;;;;;;;;5055643;28;20388;-85
2021/09/24 04:09:45;;;;;;;41.70;6.95;;;;;;;;;;5040963;28;20021;-84
2021/09/24 04:12:10;;;;;;;24.95;4.97;;;;;;;;;;5035814;28;20468;-84
2021/09/24 04:14:36;;;;;;;34.20;6.23;;;;;;;;;;5054418;28;20070;-84
2021/09/24 04:17:01;;;;;;;32.90;5.78;;;;;;;;;;5037128;28;20279;-84
2021/09/24 04:19:26;;;;;;;37.73;6.17;;;;;;;;;;5037077;28;20154;-84
2021/09/24 04:21:51;;;;;;;31.77;7.30;;;;;;;;;;5037650;28;20905;-84
2021/09/24 04:24:17;;;;;;;33.70;6.80;;;;;;;;;;5037100;28;20024;-85
2021/09/24 04:26:42;;;;;;;26.17;5.78;;;;;;;;;;5038184;28;20056;-84
2021/09/24 04:29:07;;;;;;;31.80;6.03;;;;;;;;;;5037903;28;20473;-84
2021/09/24 04:31:33;;;;;;;29.55;5.93;;;;;;;;;;5039497;28;20078;-84
2021/09/24 04:33:58;;;;;;;34.80;6.50;;;;;;;;;;5054463;28;20032;-84
2021/09/24 04:36:23;;;;;;;43.90;5.97;;;;;;;;;;5037040;28;20489;-85
2021/09/24 04:38:49;;;;;;;32.00;5.03;;;;;;;;;;5038733;28;20057;-84
2021/09/24 04:41:14;;;;;;;33.70;6.35;;;;;;;;;;5037653;28;20082;-85
2021/09/24 04:43:39;;;;;;;32.97;6.22;;;;;;;;;;5037396;28;20021;-84
2021/09/24 04:46:05;;;;;;;34.28;6.10;;;;;;;;;;5056584;28;20025;-84
2021/09/24 04:48:31;;;;;;;41.27;7.73;;;;;;;;;;5035041;28;20366;-84
2021/09/24 04:50:57;;;;;;;26.98;6.15;;;;;;;;;;5035412;28;20256;-84
2021/09/24 04:53:22;;;;;;;29.60;5.85;;;;;;;;;;5036429;28;20028;-84
2021/09/24 04:55:47;;;;;;;26.83;5.40;;;;;;;;;;5054619;28;20029;-85
2021/09/24 04:58:12;;;;;;;30.75;5.75;;;;;;;;;;5053992;28;20282;-84
2021/09/24 05:00:38;;;;;;;34.75;6.45;;;;;;;;;;5055271;28;20060;-84
2021/09/24 05:03:03;;;;;;;34.17;6.57;;;;;;;;;;5054952;28;20060;-84
2021/09/24 05:05:28;;;;;;;29.80;6.10;;;;;;;;;;5037385;28;20370;-85
2021/09/24 05:07:54;;;;;;;32.53;6.05;;;;;;;;;;5040114;28;20824;-84
2021/09/24 05:10:19;;;;;;;46.28;6.05;;;;;;;;;;5034877;28;20041;-84
2021/09/24 05:12:45;;;;;;;33.10;6.32;;;;;;;;;;5054329;28;20017;-84
2021/09/24 05:15:10;;;;;;;28.05;5.78;;;;;;;;;;5056857;28;20025;-84
2021/09/24 05:17:35;;;;;;;39.35;6.93;;;;;;;;;;5035516;28;20524;-84
2021/09/24 05:20:01;;;;;;;35.63;6.40;;;;;;;;;;5036711;28;20553;-83
2021/09/24 05:22:26;;;;;;;31.85;6.93;;;;;;;;;;5036382;28;20282;-84
2021/09/24 05:24:52;;;;;;;42.15;5.85;;;;;;;;;;5036601;28;20055;-84
2021/09/24 05:27:17;;;;;;;40.78;7.05;;;;;;;;;;5038428;28;20032;-84
2021/09/24 05:29:42;;;;;;;35.45;5.90;;;;;;;;;;5054467;28;20116;-84
2021/09/24 05:32:08;;;;;;;33.58;6.05;;;;;;;;;;5035198;28;20029;-84
2021/09/24 05:34:34;;;;;;;37.75;6.10;;;;;;;;;;5053670;28;20035;-84
2021/09/24 05:36:59;;;;;;;35.88;6.50;;;;;;;;;;5035787;28;20020;-84
2021/09/24 05:39:25;;;;;;;31.80;5.82;;;;;;;;;;5036403;28;20453;-84
2021/09/24 05:41:50;;;;;;;36.70;4.95;;;;;;;;;;5053570;28;20045;-85
2021/09/24 05:44:15;;;;;;;34.22;6.40;;;;;;;;;;5039170;28;20024;-84
2021/09/24 05:46:41;;;;;;;30.30;6.30;;;;;;;;;;5034433;28;20123;-85
2021/09/24 05:49:07;;;;;;;25.67;5.28;;;;;;;;;;5035353;28;20025;-84
2021/09/24 05:51:32;;;;;;;37.70;5.28;;;;;;;;;;5035894;28;20028;-84
2021/09/24 05:53:58;;;;;;;36.75;6.40;;;;;;;;;;5036321;28;20441;-84
2021/09/24 05:56:23;;;;;;;35.55;5.53;;;;;;;;;;5035657;28;20032;-84
2021/09/24 05:58:48;;;;;;;42.25;7.85;;;;;;;;;;5036763;28;20445;-85
2021/09/24 06:01:14;;;;;;;34.07;5.83;;;;;;;;;;5036214;28;20387;-84
2021/09/24 06:03:39;;;;;;;26.80;5.20;;;;;;;;;;5054952;28;20329;-83
2021/09/24 06:06:04;;;;;;;38.78;6.15;;;;;;;;;;5052321;28;20032;-84
2021/09/24 06:08:29;;;;;;;29.13;5.10;;;;;;;;;;5035174;28;20036;-84
2021/09/24 06:10:55;;;;;;;40.28;7.70;;;;;;;;;;5052734;28;20112;-85
2021/09/24 06:13:21;;;;;;;37.70;5.82;;;;;;;;;;5034273;28;20101;-85
2021/09/24 06:15:48;;;;;;;35.38;6.63;;;;;;;;;;5052669;28;20105;-85
2021/09/24 06:18:13;;;;;;;32.50;5.30;;;;;;;;;;5035615;28;20052;-85
2021/09/24 06:20:38;;;;;;;33.30;6.90;;;;;;;;;;5038010;28;20029;-84
2021/09/24 06:23:04;;;;;;;31.77;6.22;;;;;;;;;;5032499;28;20032;-84
2021/09/24 06:25:29;;;;;;;31.13;5.47;;;;;;;;;;5032620;28;20020;-84
2021/09/24 06:27:54;;;;;;;35.75;6.28;;;;;;;;;;5032984;28;20074;-84
2021/09/24 06:30:21;;;;;;;42.53;6.90;;;;;;;;;;5034071;28;20485;-84
2021/09/24 06:32:47;;;;;;;39.42;7.28;;;;;;;;;;5033745;28;20021;-84
2021/09/24 06:35:13;;;;;;;30.15;6.25;;;;;;;;;;5032395;28;20159;-84
2021/09/24 06:37:38;;;;;;;38.90;5.18;;;;;;;;;;5034183;28;20032;-84
2021/09/24 06:40:04;;;;;;;36.30;5.75;;;;;;;;;;5052606;28;20024;-84
2021/09/24 06:42:30;;;;;;;31.27;6.32;;;;;;;;;;5055700;28;20025;-84
2021/09/24 06:44:57;;;;;;;38.92;6.40;;;;;;;;;;5032893;28;20119;-84
2021/09/24 06:47:23;;;;;;;27.23;6.57;;;;;;;;;;5051927;28;20021;-84
2021/09/24 06:49:48;;;;;;;34.22;5.72;;;;;;;;;;5034616;28;20021;-84
2021/09/24 06:52:13;;;;;;;33.67;5.22;;;;;;;;;;5053244;28;20029;-84
2021/09/24 06:54:39;;;;;;;37.00;6.75;;;;;;;;;;5032660;28;20431;-84
2021/09/24 06:57:04;;;;;;;40.20;5.88;;;;;;;;;;5033474;28;20028;-84
2021/09/24 06:59:29;;;;;;;27.73;4.80;;;;;;;;;;5033899;28;20108;-85
2021/09/24 07:01:55;;;;;;;28.33;5.93;;;;;;;;;;5053565;28;20032;-85
2021/09/24 07:04:20;;;;;;;21.65;5.70;;;;;;;;;;5052537;28;20086;-84
2021/09/24 07:06:48;;;;;;;29.38;6.32;;;;;;;;;;5032966;28;20166;-84
2021/09/24 07:09:13;;;;;;;30.45;5.35;;;;;;;;;;5034163;28;20028;-84
2021/09/24 07:11:38;;;;;;;30.93;5.77;;;;;;;;;;5033872;28;20461;-84
2021/09/24 07:14:08;;;;;;;29.50;5.38;;;;;;;;;;5035306;28;20285;-84
2021/09/24 07:16:34;;;;;;;39.72;6.80;;;;;;;;;;5033112;28;20016;-84
2021/09/24 07:18:59;;;;;;;42.97;6.50;;;;;;;;;;5029842;28;20587;-84
2021/09/24 07:21:24;;;;;;;35.07;8.17;;;;;;;;;;5030865;28;20405;-85
2021/09/24 07:23:50;;;;;;;29.73;5.30;;;;;;;;;;5031777;28;20260;-85
2021/09/24 07:26:15;;;;;;;21.13;4.68;;;;;;;;;;5030934;28;20370;-85
2021/09/24 07:28:40;;;;;;;31.58;6.03;;;;;;;;;;5029718;28;20544;-84
2021/09/24 07:31:05;;;;;;;35.85;5.38;;;;;;;;;;5031796;28;20048;-85
2021/09/24 07:33:31;;;;;;;27.20;5.63;;;;;;;;;;5035253;28;20076;-84
2021/09/24 07:35:56;;;;;;;39.83;8.77;;;;;;;;;;5034826;28;20318;-84
2021/09/24 07:38:22;;;;;;;36.10;6.00;;;;;;;;;;5032945;28;20013;-84
2021/09/24 07:40:47;;;;;;;34.38;5.50;;;;;;;;;;5016838;28;20041;-84
2021/09/24 07:43:14;;;;;;;34.55;5.65;;;;;;;;;;5035555;28;20083;-85
2021/09/24 07:45:39;;;;;;;39.35;5.80;;;;;;;;;;5033682;28;20080;-84
2021/09/24 07:48:05;;;;;;;30.90;5.90;;;;;;;;;;5034275;28;20025;-84
2021/09/24 07:50:30;;;;;;;30.80;4.65;;;;;;;;;;5034749;28;20489;-84
2021/09/24 07:52:55;;;;;;;30.90;5.78;;;;;;;;;;5033204;28;20107;-85
2021/09/24 07:55:21;;;;;;;25.83;4.95;;;;;;;;;;5033986;28;20481;-85
2021/09/24 07:57:50;;;;;;;30.77;6.50;;;;;;;;;;5035076;28;20065;-84
2021/09/24 08:00:15;;;;;;;35.97;6.47;;;;;;;;;;5032961;28;20044;-84
2021/09/24 08:02:41;;;;;;;39.20;5.90;;;;;;;;;;5032993;28;20507;-84
2021/09/24 08:05:06;;;;;;;35.75;6.10;;;;;;;;;;5033594;28;20310;-84
2021/09/24 08:07:32;;;;;;;29.38;5.90;;;;;;;;;;5033444;28;20017;-84
2021/09/24 08:09:57;;;;;;;21.60;5.00;;;;;;;;;;5033568;28;20537;-84
2021/09/24 08:12:22;;;;;;;27.43;4.77;;;;;;;;;;5033792;28;20073;-84
2021/09/24 08:14:47;;;;;;;22.02;4.90;;;;;;;;;;5033386;28;20044;-84
2021/09/24 08:17:13;;;;;;;26.77;5.95;;;;;;;;;;5034301;28;20022;-84
2021/09/24 08:19:38;;;;;;;39.08;7.28;;;;;;;;;;5033020;28;20041;-83
2021/09/24 08:22:04;;;;;;;31.90;5.00;;;;;;;;;;5034973;28;20026;-84
2021/09/24 08:24:30;;;;;;;31.48;5.55;;;;;;;;;;5033783;28;20032;-84
2021/09/24 08:26:55;;;;;;;30.67;6.13;;;;;;;;;;5032942;28;20017;-84
2021/09/24 08:29:20;;;;;;;25.77;5.32;;;;;;;;;;5035097;28;20060;-84
2021/09/24 08:31:46;;;;;;;26.23;5.00;;;;;;;;;;5034050;28;20021;-84
2021/09/24 08:34:11;;;;;;;22.38;4.15;;;;;;;;;;5034557;28;20025;-84
2021/09/24 08:36:36;;;;;;;35.85;5.07;;;;;;;;;;5033022;28;20077;-84
2021/09/24 08:39:02;;;;;;;23.90;4.68;;;;;;;;;;5034398;28;20033;-84
2021/09/24 08:41:29;;;;;;;26.80;3.95;;;;;;;;;;5032573;28;20055;-84
2021/09/24 08:43:55;;;;;;;27.98;5.30;;;;;;;;;;5031523;28;20116;-84
2021/09/24 08:46:20;;;;;;;25.45;4.03;;;;;;;;;;5032621;28;20795;-84
2021/09/24 08:48:46;;;;;;;26.13;4.78;;;;;;;;;;5034312;28;20031;-84
2021/09/24 08:51:11;;;;;;;25.58;4.15;;;;;;;;;;5032900;28;20018;-84
2021/09/24 08:53:37;;;;;;;26.42;4.30;;;;;;;;;;5031878;28;20026;-84
2021/09/24 08:56:03;;;;;;;27.70;4.90;;;;;;;;;;5032994;28;20033;-84
2021/09/24 08:58:28;;;;;;;26.00;5.05;;;;;;;;;;5032626;28;20040;-84
2021/09/24 09:00:53;;;;;;;19.73;3.70;;;;;;;;;;5032012;28;20384;-84
2021/09/24 09:03:19;;;;;;;19.52;4.78;;;;;;;;;;5031938;28;20159;-84
2021/09/24 09:05:46;;;;;;;28.33;5.10;;;;;;;;;;5033551;28;20025;-84
2021/09/24 09:08:27;;;;;;;21.00;4.03;;;;;;;;;;5032037;28;20112;-83
2021/09/24 09:10:59;;;;;;;31.08;4.15;;;;;;;;;;5032175;28;20064;-83
2021/09/24 09:13:29;;;;;;;21.88;4.80;;;;;;;;;;5032985;28;20034;-84
2021/09/24 09:15:59;;;;;;;24.75;4.22;;;;;;;;;;5031564;28;20089;-84
2021/09/24 09:18:25;;;;;;;21.23;5.25;;;;;;;;;;5032373;28;20049;-84
2021/09/24 09:20:50;;;;;;;26.60;4.82;;;;;;;;;;5033593;28;20021;-84
2021/09/24 09:23:17;;;;;;;30.63;5.43;;;;;;;;;;5033829;28;20133;-84
2021/09/24 09:25:44;;;;;;;24.83;4.72;;;;;;;;;;5033063;28;20084;-84
2021/09/24 09:28:11;;;;;;;26.60;4.88;;;;;;;;;;5031568;28;20473;-84
2021/09/24 09:30:37;;;;;;;27.13;4.70;;;;;;;;;;5032011;28;20025;-84
2021/09/24 09:33:08;;;;;;;27.70;5.97;;;;;;;;;;5032033;28;20021;-84
2021/09/24 09:35:35;;;;;;;28.30;4.78;;;;;;;;;;5031465;28;20140;-84
2021/09/24 09:38:00;;;;;;;31.42;5.20;;;;;;;;;;5033345;28;20048;-84
2021/09/24 09:40:27;;;;;;;20.60;3.83;;;;;;;;;;5032556;28;20072;-83
2021/09/24 09:42:57;;;;;;;23.05;4.28;;;;;;;;;;5031162;28;20025;-84
2021/09/24 09:45:23;;;;;;;19.42;4.28;;;;;;;;;;5032685;28;20080;-84
2021/09/24 09:47:49;;;;;;;24.52;4.05;;;;;;;;;;5032725;28;20089;-84
2021/09/24 09:50:20;;;;;;;18.73;3.47;;;;;;;;;;5031685;28;20092;-84
2021/09/24 09:53:04;;;;;;;20.45;4.40;;;;;;;;;;5031115;28;20025;-84
2021/09/24 09:55:31;;;;;;;22.60;4.03;;;;;;;;;;5032890;28;20385;-83
2021/09/24 09:58:00;;;;;;;22.02;3.38;;;;;;;;;;5033904;28;20053;-84
2021/09/24 10:00:29;;;;;;;22.55;3.85;;;;;;;;;;5032247;28;20029;-84
2021/09/24 10:03:05;;;;;;;20.17;4.47;;;;;;;;;;5032434;28;20029;-84
2021/09/24 10:05:31;;;;;;;14.82;3.38;;;;;;;;;;5031155;28;20026;-84
2021/09/24 10:07:57;;;;;;;18.77;3.90;;;;;;;;;;5032446;28;20428;-84
2021/09/24 10:10:22;;;;;;;16.48;3.90;;;;;;;;;;5032948;28;20022;-84
2021/09/24 10:12:49;;;;;;;21.10;3.90;;;;;;;;;;5032740;28;20081;-84
2021/09/24 10:15:14;;;;;;;16.85;4.50;;;;;;;;;;5030855;28;20029;-84
2021/09/24 10:17:41;;;;;;;15.05;3.85;;;;;;;;;;5031491;28;20496;-84
2021/09/24 10:20:07;;;;;;;15.68;3.92;;;;;;;;;;5052407;28;20024;-84
2021/09/24 10:22:33;;;;;;;11.65;3.42;;;;;;;;;;5034416;28;20029;-84
2021/09/24 10:24:58;;;;;;;12.82;4.32;;;;;;;;;;5033454;28;20028;-84
2021/09/24 10:27:26;;;;;;;8.82;2.90;;;;;;;;;;5052219;28;20048;-84
2021/09/24 10:29:52;;;;;;;17.98;3.90;;;;;;;;;;5051633;28;20025;-84
2021/09/24 10:32:19;;;;;;;11.77;3.95;;;;;;;;;;5052584;28;20424;-84
2021/09/24 10:34:52;;;;;;;11.10;3.42;;;;;;;;;;5052438;28;20033;-84
2021/09/24 10:37:17;;;;;;;15.82;3.72;;;;;;;;;;5033962;28;20546;-84
2021/09/24 10:39:43;;;;;;;17.70;3.95;;;;;;;;;;5033208;28;20017;-84
2021/09/24 10:42:21;;;;;;;12.45;3.70;;;;;;;;;;5034925;28;20120;-84
2021/09/24 10:45:05;;;;;;;12.63;4.35;;;;;;;;;;5052490;28;20031;-84
2021/09/24 10:47:42;;;;;;;17.50;3.80;;;;;;;;;;5052690;28;20032;-84
2021/09/24 10:50:28;;;;;;;19.48;4.90;;;;;;;;;;5033885;28;20032;-84
2021/09/24 10:53:18;;;;;;;19.30;5.05;;;;;;;;;;4987315;28;20364;-84
2021/09/24 10:55:43;;;;;;;14.75;4.32;;;;;;;;;;5035264;28;20594;-84
2021/09/24 10:58:31;;;;;;;16.42;4.20;;;;;;;;;;5034822;28;20120;-84
2021/09/24 11:01:05;;;;;;;23.02;5.03;;;;;;;;;;5033569;28;20480;-84
2021/09/24 11:03:31;;;;;;;16.02;4.43;;;;;;;;;;5034305;28;20021;-84
2021/09/24 11:06:01;;;;;;;20.77;5.40;;;;;;;;;;5035768;28;20579;-84
2021/09/24 11:08:29;;;;;;;24.92;5.40;;;;;;;;;;5057976;28;20025;-84
2021/09/24 11:11:00;;;;;;;22.10;5.88;;;;;;;;;;5039347;28;20508;-84
2021/09/24 11:13:26;;;;;;;;;;;;;;;;;;5038719;28;20480;-84
2021/09/24 11:15:58;;;;;;;14.52;4.68;;;;;;;;;;5056554;28;20000;-84
2021/09/24 11:18:42;;;;;;;22.17;4.90;;;;;;;;;;5038591;28;20056;-85
2021/09/24 11:21:07;;;;;;;15.63;4.43;;;;;;;;;;5039168;28;20021;-84
2021/09/24 11:23:34;;;;;;;23.40;4.88;;;;;;;;;;5057809;28;20469;-84
2021/09/24 11:26:12;;;;;;;16.35;4.57;;;;;;;;;;5056477;28;20025;-84
2021/09/24 11:28:37;;;;;;;16.90;4.60;;;;;;;;;;5059350;28;20183;-84
2021/09/24 11:31:03;;;;;;;23.38;5.03;;;;;;;;;;5057656;28;20103;-84
2021/09/24 11:33:38;;;;;;;18.45;5.00;;;;;;;;;;5039626;28;20017;-84
2021/09/24 11:36:04;;;;;;;19.27;4.75;;;;;;;;;;5056486;28;20078;-85
2021/09/24 11:38:29;;;;;;;18.88;5.50;;;;;;;;;;5059472;28;20415;-85
2021/09/24 11:40:58;;;;;;;17.70;5.53;;;;;;;;;;5057612;28;20021;-84
2021/09/24 11:43:36;;;;;;;22.15;4.85;;;;;;;;;;5056043;28;20082;-84
2021/09/24 11:46:11;;;;;;;18.67;4.28;;;;;;;;;;5036782;28;20024;-84
2021/09/24 11:48:37;;;;;;;17.15;4.05;;;;;;;;;;5040369;28;20377;-84
2021/09/24 11:51:16;;;;;;;21.98;5.20;;;;;;;;;;5038871;28;20052;-84
2021/09/24 11:53:48;;;;;;;12.88;4.07;;;;;;;;;;5056954;28;20047;-85
2021/09/24 11:56:17;;;;;;;17.20;4.82;;;;;;;;;;5037917;28;20504;-84
2021/09/24 11:58:42;;;;;;;24.50;4.88;;;;;;;;;;5037866;28;20500;-84
2021/09/24 12:01:10;;;;;;;14.63;4.50;;;;;;;;;;5040039;28;20049;-84
2021/09/24 12:03:35;;;;;;;18.60;4.82;;;;;;;;;;5038406;28;20276;-84
2021/09/24 12:06:05;;;;;;;17.52;5.07;;;;;;;;;;5039579;28;20173;-84
2021/09/24 12:08:32;;;;;;;18.90;5.22;;;;;;;;;;5039418;28;20041;-84
2021/09/24 12:10:57;;;;;;;21.27;5.63;;;;;;;;;;5041306;28;20025;-84
2021/09/24 12:13:22;;;;;;;21.37;4.30;;;;;;;;;;5038760;28;20078;-84
2021/09/24 12:15:52;;;;;;;18.30;5.13;;;;;;;;;;5038711;28;20354;-84
2021/09/24 12:18:17;;;;;;;21.33;4.97;;;;;;;;;;5056152;28;20080;-84
2021/09/24 12:20:43;;;;;;;19.38;5.05;;;;;;;;;;5038230;28;20082;-84
2021/09/24 12:23:09;;;;;;;23.75;4.75;;;;;;;;;;5057090;28;20029;-84
2021/09/24 12:25:34;;;;;;;25.40;5.60;;;;;;;;;;5036810;28;20055;-84
2021/09/24 12:28:09;;;;;;;24.38;5.18;;;;;;;;;;5036307;28;20075;-84
2021/09/24 12:30:43;;;;;;;21.58;5.00;;;;;;;;;;5037083;28;20032;-84
2021/09/24 12:33:12;;;;;;;16.63;4.45;;;;;;;;;;5037686;28;20025;-84
2021/09/24 12:35:38;;;;;;;26.02;5.18;;;;;;;;;;5054920;28;20431;-84
2021/09/24 12:38:04;;;;;;;17.92;5.20;;;;;;;;;;5035844;28;20020;-84
2021/09/24 12:40:30;;;;;;;27.10;6.03;;;;;;;;;;5056736;28;20025;-85
2021/09/24 12:42:56;;;;;;;23.15;5.32;;;;;;;;;;5056008;28;20029;-84
2021/09/24 12:45:29;;;;;;;19.95;5.25;;;;;;;;;;5036627;28;20017;-84
2021/09/24 12:48:05;;;;;;;27.58;6.13;;;;;;;;;;5036720;28;20024;-84
2021/09/24 12:50:30;;;;;;;22.40;5.30;;;;;;;;;;5056415;28;20017;-84
2021/09/24 12:52:56;;;;;;;24.90;6.05;;;;;;;;;;5038523;28;20423;-84
2021/09/24 12:55:21;;;;;;;36.03;9.70;;;;;;;;;;5055062;28;20087;-84
2021/09/24 12:57:46;;;;;;;30.42;7.25;;;;;;;;;;5055707;28;20049;-84
2021/09/24 13:00:12;;;;;;;24.73;7.22;;;;;;;;;;5055623;28;20036;-84
2021/09/24 13:02:39;;;;;;;26.30;6.88;;;;;;;;;;5056675;28;20392;-85
2021/09/24 13:05:05;;;;;;;30.58;8.45;;;;;;;;;;5038749;28;20032;-84
2021/09/24 13:07:30;;;;;;;30.77;6.68;;;;;;;;;;5055888;28;20017;-84
2021/09/24 13:10:03;;;;;;;25.85;7.55;;;;;;;;;;5055315;28;20021;-84
2021/09/24 13:12:29;;;;;;;28.67;7.82;;;;;;;;;;5037537;28;20025;-84
2021/09/24 13:14:54;;;;;;;38.10;8.40;;;;;;;;;;5038540;28;20108;-84
2021/09/24 13:17:20;;;;;;;35.92;8.32;;;;;;;;;;5037935;28;20044;-84
2021/09/24 13:19:45;;;;;;;38.42;10.68;;;;;;;;;;5054273;28;20041;-84
2021/09/24 13:22:10;;;;;;;41.07;10.20;;;;;;;;;;5054814;28;20017;-84
2021/09/24 13:24:36;;;;;;;31.20;8.68;;;;;;;;;;5036496;28;20060;-84
2021/09/24 13:27:01;;;;;;;37.25;9.63;;;;;;;;;;5056358;28;20032;-85
2021/09/24 13:29:27;;;;;;;35.58;9.48;;;;;;;;;;5036062;28;20477;-84
2021/09/24 13:31:53;;;;;;;37.45;10.77;;;;;;;;;;5035974;28;20021;-84
2021/09/24 13:34:18;;;;;;;33.53;9.98;;;;;;;;;;5036540;28;20028;-84
2021/09/24 13:36:44;;;;;;;30.63;9.18;;;;;;;;;;5056034;28;20370;-84
2021/09/24 13:39:09;;;;;;;33.42;10.23;;;;;;;;;;5036497;28;20103;-84
2021/09/24 13:41:35;;;;;;;32.92;10.55;;;;;;;;;;5035923;28;20371;-84
2021/09/24 13:44:00;;;;;;;31.85;9.65;;;;;;;;;;5053431;28;20082;-84
2021/09/24 13:46:25;;;;;;;36.00;10.10;;;;;;;;;;5036258;28;20060;-84
2021/09/24 13:48:51;;;;;;;30.50;8.80;;;;;;;;;;5035847;28;20252;-84
2021/09/24 13:51:16;;;;;;;35.13;9.82;;;;;;;;;;5036125;28;20043;-85
2021/09/24 13:53:42;;;;;;;33.05;7.50;;;;;;;;;;5053161;28;20021;-84
2021/09/24 13:56:07;;;;;;;26.38;8.60;;;;;;;;;;5036232;28;20377;-84
2021/09/24 13:58:33;;;;;;;37.28;8.75;;;;;;;;;;5037001;28;20434;-85
2021/09/24 14:00:58;;;;;;;25.20;7.50;;;;;;;;;;5035786;28;20032;-85
2021/09/24 14:03:23;;;;;;;23.27;7.75;;;;;;;;;;5036199;28;20021;-85
2021/09/24 14:05:48;;;;;;;26.85;7.13;;;;;;;;;;5054582;28;20053;-85
2021/09/24 14:08:14;;;;;;;30.15;8.45;;;;;;;;;;5036690;28;20055;-85
2021/09/24 14:10:39;;;;;;;21.85;7.43;;;;;;;;;;5054688;28;20118;-84
2021/09/24 14:13:05;;;;;;;24.23;8.82;;;;;;;;;;5053842;28;20025;-84
2021/09/24 14:15:30;;;;;;;22.10;7.22;;;;;;;;;;5036920;28;20378;-84
2021/09/24 14:17:56;;;;;;;34.90;8.65;;;;;;;;;;5054133;28;20085;-84
2021/09/24 14:20:21;;;;;;;26.13;8.85;;;;;;;;;;5035541;28;20021;-84
2021/09/24 14:22:47;;;;;;;34.17;11.07;;;;;;;;;;5053702;28;20457;-84
2021/09/24 14:25:12;;;;;;;40.83;10.60;;;;;;;;;;5034721;28;20029;-84
2021/09/24 14:27:38;;;;;;;37.28;11.07;;;;;;;;;;5054796;28;20051;-84